sensor_id;sensor_type;location;lat;lon;timestamp;P1;durP1;ratioP1;P2;durP2;ratioP2
21657;SDS011;10990;48.174;9.782;2024-02-26T00:02:22;5.70;;;3.20;;
21657;SDS011;10990;48.174;9.782;2024-02-26T00:04:49;5.60;;;3.20;;
21657;SDS011;10990;48.174;9.782;2024-02-26T00:07:15;4.40;;;2.97;;
21657;SDS011;10990;48.174;9.782;2024-02-26T00:09:41;4.93;;;3.10;;
21657;SDS011;10990;48.174;9.782;2024-02-26T00:12:07;5.40;;;3.00;;
21657;SDS011;10990;48.174;9.782;2024-02-26T00:14:33;5.07;;;2.80;;
21657;SDS011;10990;48.174;9.782;2024-02-26T00:17:02;4.23;;;2.87;;
21657;SDS011;10990;48.174;9.782;2024-02-26T00:19:28;4.73;;;3.00;;
21657;SDS011;10990;48.174;9.782;2024-02-26T00:21:54;5.77;;;3.17;;
21657;SDS011;10990;48.174;9.782;2024-02-26T00:24:20;4.43;;;2.83;;
21657;SDS011;10990;48.174;9.782;2024-02-26T00:26:46;4.47;;;2.70;;
21657;SDS011;10990;48.174;9.782;2024-02-26T00:29:12;4.07;;;2.70;;
21657;SDS011;10990;48.174;9.782;2024-02-26T00:31:38;4.10;;;2.57;;
21657;SDS011;10990;48.174;9.782;2024-02-26T00:34:07;4.70;;;2.30;;
21657;SDS011;10990;48.174;9.782;2024-02-26T00:36:33;2.73;;;2.33;;
21657;SDS011;10990;48.174;9.782;2024-02-26T00:38:59;6.07;;;2.40;;
21657;SDS011;10990;48.174;9.782;2024-02-26T00:41:25;4.63;;;2.90;;
21657;SDS011;10990;48.174;9.782;2024-02-26T00:43:51;3.47;;;2.70;;
21657;SDS011;10990;48.174;9.782;2024-02-26T00:46:17;6.53;;;3.50;;
21657;SDS011;10990;48.174;9.782;2024-02-26T00:48:43;5.07;;;3.30;;
21657;SDS011;10990;48.174;9.782;2024-02-26T00:51:12;5.30;;;3.37;;
21657;SDS011;10990;48.174;9.782;2024-02-26T00:53:38;5.87;;;3.83;;
21657;SDS011;10990;48.174;9.782;2024-02-26T00:56:04;6.23;;;4.00;;
21657;SDS011;10990;48.174;9.782;2024-02-26T00:58:30;7.13;;;3.87;;
21657;SDS011;10990;48.174;9.782;2024-02-26T01:00:56;5.93;;;3.70;;
21657;SDS011;10990;48.174;9.782;2024-02-26T01:03:22;5.80;;;3.97;;
21657;SDS011;10990;48.174;9.782;2024-02-26T01:05:49;6.23;;;3.77;;
21657;SDS011;10990;48.174;9.782;2024-02-26T01:08:17;7.47;;;4.27;;
21657;SDS011;10990;48.174;9.782;2024-02-26T01:10:43;7.93;;;4.17;;
21657;SDS011;10990;48.174;9.782;2024-02-26T01:13:09;7.03;;;4.30;;
21657;SDS011;10990;48.174;9.782;2024-02-26T01:15:35;9.10;;;4.57;;
21657;SDS011;10990;48.174;9.782;2024-02-26T01:18:02;6.33;;;3.90;;
21657;SDS011;10990;48.174;9.782;2024-02-26T01:20:28;6.73;;;4.90;;
21657;SDS011;10990;48.174;9.782;2024-02-26T01:22:54;7.03;;;4.20;;
21657;SDS011;10990;48.174;9.782;2024-02-26T01:25:23;9.20;;;4.30;;
21657;SDS011;10990;48.174;9.782;2024-02-26T01:27:49;7.20;;;4.57;;
21657;SDS011;10990;48.174;9.782;2024-02-26T01:30:15;7.93;;;3.87;;
21657;SDS011;10990;48.174;9.782;2024-02-26T01:32:41;5.70;;;4.23;;
21657;SDS011;10990;48.174;9.782;2024-02-26T01:35:07;6.27;;;3.97;;
21657;SDS011;10990;48.174;9.782;2024-02-26T01:37:34;7.70;;;4.43;;
21657;SDS011;10990;48.174;9.782;2024-02-26T01:40:00;7.57;;;4.67;;
21657;SDS011;10990;48.174;9.782;2024-02-26T01:42:29;7.53;;;4.60;;
21657;SDS011;10990;48.174;9.782;2024-02-26T01:44:55;7.13;;;4.77;;
21657;SDS011;10990;48.174;9.782;2024-02-26T01:47:21;8.13;;;5.13;;
21657;SDS011;10990;48.174;9.782;2024-02-26T01:49:48;6.67;;;4.53;;
21657;SDS011;10990;48.174;9.782;2024-02-26T01:52:15;6.63;;;4.87;;
21657;SDS011;10990;48.174;9.782;2024-02-26T01:54:42;7.27;;;4.60;;
21657;SDS011;10990;48.174;9.782;2024-02-26T01:57:10;6.50;;;4.80;;
21657;SDS011;10990;48.174;9.782;2024-02-26T01:59:40;6.93;;;4.77;;
21657;SDS011;10990;48.174;9.782;2024-02-26T02:02:07;7.83;;;5.07;;
21657;SDS011;10990;48.174;9.782;2024-02-26T02:04:35;7.13;;;5.10;;
21657;SDS011;10990;48.174;9.782;2024-02-26T02:07:02;6.23;;;4.47;;
21657;SDS011;10990;48.174;9.782;2024-02-26T02:09:28;8.73;;;5.07;;
21657;SDS011;10990;48.174;9.782;2024-02-26T02:11:55;6.47;;;4.60;;
21657;SDS011;10990;48.174;9.782;2024-02-26T02:14:22;9.93;;;5.67;;
21657;SDS011;10990;48.174;9.782;2024-02-26T02:16:51;7.00;;;4.73;;
21657;SDS011;10990;48.174;9.782;2024-02-26T02:19:17;7.03;;;4.83;;
21657;SDS011;10990;48.174;9.782;2024-02-26T02:21:46;7.03;;;4.50;;
21657;SDS011;10990;48.174;9.782;2024-02-26T02:24:12;8.30;;;5.13;;
21657;SDS011;10990;48.174;9.782;2024-02-26T02:26:38;7.77;;;5.13;;
21657;SDS011;10990;48.174;9.782;2024-02-26T02:29:04;6.70;;;4.77;;
21657;SDS011;10990;48.174;9.782;2024-02-26T02:31:32;8.07;;;5.33;;
21657;SDS011;10990;48.174;9.782;2024-02-26T02:33:58;8.63;;;5.40;;
21657;SDS011;10990;48.174;9.782;2024-02-26T02:36:25;7.50;;;5.43;;
21657;SDS011;10990;48.174;9.782;2024-02-26T02:38:54;8.90;;;5.50;;
21657;SDS011;10990;48.174;9.782;2024-02-26T02:41:20;7.53;;;5.13;;
21657;SDS011;10990;48.174;9.782;2024-02-26T02:43:46;9.80;;;6.20;;
21657;SDS011;10990;48.174;9.782;2024-02-26T02:46:13;8.20;;;5.97;;
21657;SDS011;10990;48.174;9.782;2024-02-26T02:48:39;8.13;;;5.63;;
21657;SDS011;10990;48.174;9.782;2024-02-26T02:51:06;9.00;;;5.83;;
21657;SDS011;10990;48.174;9.782;2024-02-26T02:53:32;10.60;;;6.27;;
21657;SDS011;10990;48.174;9.782;2024-02-26T02:56:01;9.83;;;6.10;;
21657;SDS011;10990;48.174;9.782;2024-02-26T02:58:27;11.10;;;6.40;;
21657;SDS011;10990;48.174;9.782;2024-02-26T03:00:54;9.50;;;6.03;;
21657;SDS011;10990;48.174;9.782;2024-02-26T03:03:20;9.67;;;5.57;;
21657;SDS011;10990;48.174;9.782;2024-02-26T03:05:46;8.67;;;5.50;;
21657;SDS011;10990;48.174;9.782;2024-02-26T03:08:12;10.07;;;6.20;;
21657;SDS011;10990;48.174;9.782;2024-02-26T03:10:38;9.13;;;5.87;;
21657;SDS011;10990;48.174;9.782;2024-02-26T03:13:06;10.80;;;6.80;;
21657;SDS011;10990;48.174;9.782;2024-02-26T03:15:32;11.90;;;6.80;;
21657;SDS011;10990;48.174;9.782;2024-02-26T03:17:59;10.57;;;6.70;;
21657;SDS011;10990;48.174;9.782;2024-02-26T03:20:25;10.70;;;6.23;;
21657;SDS011;10990;48.174;9.782;2024-02-26T03:22:51;10.60;;;5.93;;
21657;SDS011;10990;48.174;9.782;2024-02-26T03:25:17;10.07;;;6.73;;
21657;SDS011;10990;48.174;9.782;2024-02-26T03:27:43;9.70;;;5.93;;
21657;SDS011;10990;48.174;9.782;2024-02-26T03:30:11;12.73;;;6.80;;
21657;SDS011;10990;48.174;9.782;2024-02-26T03:32:38;11.53;;;6.40;;
21657;SDS011;10990;48.174;9.782;2024-02-26T03:35:04;9.23;;;6.10;;
21657;SDS011;10990;48.174;9.782;2024-02-26T03:37:30;9.80;;;6.53;;
21657;SDS011;10990;48.174;9.782;2024-02-26T03:39:56;8.80;;;6.10;;
21657;SDS011;10990;48.174;9.782;2024-02-26T03:42:22;11.73;;;6.60;;
21657;SDS011;10990;48.174;9.782;2024-02-26T03:44:49;12.30;;;6.70;;
21657;SDS011;10990;48.174;9.782;2024-02-26T03:47:18;8.67;;;5.90;;
21657;SDS011;10990;48.174;9.782;2024-02-26T03:49:44;9.03;;;6.20;;
21657;SDS011;10990;48.174;9.782;2024-02-26T03:52:10;9.07;;;6.00;;
21657;SDS011;10990;48.174;9.782;2024-02-26T03:54:36;10.23;;;6.53;;
21657;SDS011;10990;48.174;9.782;2024-02-26T03:57:02;10.60;;;6.77;;
21657;SDS011;10990;48.174;9.782;2024-02-26T03:59:28;10.70;;;7.00;;
21657;SDS011;10990;48.174;9.782;2024-02-26T04:01:54;10.90;;;6.77;;
21657;SDS011;10990;48.174;9.782;2024-02-26T04:04:23;9.87;;;6.23;;
21657;SDS011;10990;48.174;9.782;2024-02-26T04:06:49;11.17;;;6.43;;
21657;SDS011;10990;48.174;9.782;2024-02-26T04:09:15;8.67;;;6.20;;
21657;SDS011;10990;48.174;9.782;2024-02-26T04:11:41;10.50;;;6.87;;
21657;SDS011;10990;48.174;9.782;2024-02-26T04:14:07;11.03;;;6.73;;
21657;SDS011;10990;48.174;9.782;2024-02-26T04:16:32;10.30;;;6.60;;
21657;SDS011;10990;48.174;9.782;2024-02-26T04:18:58;11.83;;;7.80;;
21657;SDS011;10990;48.174;9.782;2024-02-26T04:21:27;12.07;;;7.83;;
21657;SDS011;10990;48.174;9.782;2024-02-26T04:23:53;12.07;;;8.40;;
21657;SDS011;10990;48.174;9.782;2024-02-26T04:26:18;13.80;;;9.30;;
21657;SDS011;10990;48.174;9.782;2024-02-26T04:28:44;14.50;;;9.57;;
21657;SDS011;10990;48.174;9.782;2024-02-26T04:31:10;25.20;;;16.93;;
21657;SDS011;10990;48.174;9.782;2024-02-26T04:33:36;36.87;;;23.23;;
21657;SDS011;10990;48.174;9.782;2024-02-26T04:36:02;30.67;;;19.90;;
21657;SDS011;10990;48.174;9.782;2024-02-26T04:38:31;24.77;;;15.90;;
21657;SDS011;10990;48.174;9.782;2024-02-26T04:40:57;29.00;;;18.27;;
21657;SDS011;10990;48.174;9.782;2024-02-26T04:43:22;32.70;;;20.53;;
21657;SDS011;10990;48.174;9.782;2024-02-26T04:45:48;30.43;;;19.13;;
21657;SDS011;10990;48.174;9.782;2024-02-26T04:48:14;27.67;;;17.63;;
21657;SDS011;10990;48.174;9.782;2024-02-26T04:50:40;28.47;;;17.97;;
21657;SDS011;10990;48.174;9.782;2024-02-26T04:53:06;31.10;;;17.97;;
21657;SDS011;10990;48.174;9.782;2024-02-26T04:55:34;30.47;;;18.93;;
21657;SDS011;10990;48.174;9.782;2024-02-26T04:58:00;26.63;;;17.10;;
21657;SDS011;10990;48.174;9.782;2024-02-26T05:00:26;27.87;;;16.70;;
21657;SDS011;10990;48.174;9.782;2024-02-26T05:02:52;22.57;;;13.37;;
21657;SDS011;10990;48.174;9.782;2024-02-26T05:05:17;22.50;;;12.63;;
21657;SDS011;10990;48.174;9.782;2024-02-26T05:07:43;16.83;;;10.70;;
21657;SDS011;10990;48.174;9.782;2024-02-26T05:10:09;17.60;;;10.37;;
21657;SDS011;10990;48.174;9.782;2024-02-26T05:12:38;15.47;;;9.43;;
21657;SDS011;10990;48.174;9.782;2024-02-26T05:15:04;16.10;;;8.70;;
21657;SDS011;10990;48.174;9.782;2024-02-26T05:17:30;15.67;;;8.70;;
21657;SDS011;10990;48.174;9.782;2024-02-26T05:19:56;15.50;;;8.93;;
21657;SDS011;10990;48.174;9.782;2024-02-26T05:22:22;13.80;;;8.53;;
21657;SDS011;10990;48.174;9.782;2024-02-26T05:24:48;12.90;;;7.57;;
21657;SDS011;10990;48.174;9.782;2024-02-26T05:27:14;11.47;;;7.63;;
21657;SDS011;10990;48.174;9.782;2024-02-26T05:29:42;11.90;;;7.90;;
21657;SDS011;10990;48.174;9.782;2024-02-26T05:32:08;14.90;;;8.37;;
21657;SDS011;10990;48.174;9.782;2024-02-26T05:34:34;12.67;;;8.03;;
21657;SDS011;10990;48.174;9.782;2024-02-26T05:37:00;13.80;;;7.50;;
21657;SDS011;10990;48.174;9.782;2024-02-26T05:39:25;12.27;;;7.77;;
21657;SDS011;10990;48.174;9.782;2024-02-26T05:41:51;11.43;;;7.13;;
21657;SDS011;10990;48.174;9.782;2024-02-26T05:44:17;10.00;;;6.60;;
21657;SDS011;10990;48.174;9.782;2024-02-26T05:46:45;12.53;;;7.00;;
21657;SDS011;10990;48.174;9.782;2024-02-26T05:49:11;11.07;;;6.83;;
21657;SDS011;10990;48.174;9.782;2024-02-26T05:51:37;14.80;;;8.17;;
21657;SDS011;10990;48.174;9.782;2024-02-26T05:54:03;13.93;;;8.30;;
21657;SDS011;10990;48.174;9.782;2024-02-26T05:56:29;13.80;;;8.30;;
21657;SDS011;10990;48.174;9.782;2024-02-26T05:58:54;17.00;;;8.83;;
21657;SDS011;10990;48.174;9.782;2024-02-26T06:01:20;13.10;;;8.20;;
21657;SDS011;10990;48.174;9.782;2024-02-26T06:03:49;11.07;;;7.43;;
21657;SDS011;10990;48.174;9.782;2024-02-26T06:06:14;13.00;;;7.90;;
21657;SDS011;10990;48.174;9.782;2024-02-26T06:08:40;11.30;;;7.40;;
21657;SDS011;10990;48.174;9.782;2024-02-26T06:11:06;12.83;;;6.97;;
21657;SDS011;10990;48.174;9.782;2024-02-26T06:13:32;14.30;;;7.00;;
21657;SDS011;10990;48.174;9.782;2024-02-26T06:15:58;14.37;;;7.97;;
21657;SDS011;10990;48.174;9.782;2024-02-26T06:18:24;10.80;;;7.23;;
21657;SDS011;10990;48.174;9.782;2024-02-26T06:20:52;12.77;;;7.80;;
21657;SDS011;10990;48.174;9.782;2024-02-26T06:23:18;12.83;;;6.80;;
21657;SDS011;10990;48.174;9.782;2024-02-26T06:25:44;13.43;;;8.20;;
21657;SDS011;10990;48.174;9.782;2024-02-26T06:28:10;16.90;;;9.50;;
21657;SDS011;10990;48.174;9.782;2024-02-26T06:30:36;19.53;;;9.93;;
21657;SDS011;10990;48.174;9.782;2024-02-26T06:33:02;17.23;;;9.20;;
21657;SDS011;10990;48.174;9.782;2024-02-26T06:35:27;19.57;;;10.30;;
21657;SDS011;10990;48.174;9.782;2024-02-26T06:37:56;17.07;;;9.77;;
21657;SDS011;10990;48.174;9.782;2024-02-26T06:40:22;19.23;;;10.67;;
21657;SDS011;10990;48.174;9.782;2024-02-26T06:42:48;16.27;;;9.20;;
21657;SDS011;10990;48.174;9.782;2024-02-26T06:45:14;18.40;;;10.00;;
21657;SDS011;10990;48.174;9.782;2024-02-26T06:47:39;16.50;;;10.03;;
21657;SDS011;10990;48.174;9.782;2024-02-26T06:50:05;17.30;;;9.83;;
21657;SDS011;10990;48.174;9.782;2024-02-26T06:52:31;15.57;;;9.10;;
21657;SDS011;10990;48.174;9.782;2024-02-26T06:55:00;14.10;;;8.67;;
21657;SDS011;10990;48.174;9.782;2024-02-26T06:57:26;14.37;;;8.63;;
21657;SDS011;10990;48.174;9.782;2024-02-26T06:59:52;15.67;;;8.73;;
21657;SDS011;10990;48.174;9.782;2024-02-26T07:02:17;16.20;;;9.83;;
21657;SDS011;10990;48.174;9.782;2024-02-26T07:04:43;17.90;;;9.23;;
21657;SDS011;10990;48.174;9.782;2024-02-26T07:07:09;16.33;;;9.43;;
21657;SDS011;10990;48.174;9.782;2024-02-26T07:09:35;16.83;;;9.47;;
21657;SDS011;10990;48.174;9.782;2024-02-26T07:12:03;14.67;;;8.97;;
21657;SDS011;10990;48.174;9.782;2024-02-26T07:14:29;17.63;;;10.47;;
21657;SDS011;10990;48.174;9.782;2024-02-26T07:16:55;15.80;;;9.63;;
21657;SDS011;10990;48.174;9.782;2024-02-26T07:19:21;18.80;;;9.67;;
21657;SDS011;10990;48.174;9.782;2024-02-26T07:21:47;16.77;;;9.63;;
21657;SDS011;10990;48.174;9.782;2024-02-26T07:24:13;21.30;;;10.40;;
21657;SDS011;10990;48.174;9.782;2024-02-26T07:26:39;17.97;;;10.10;;
21657;SDS011;10990;48.174;9.782;2024-02-26T07:29:07;18.17;;;10.57;;
21657;SDS011;10990;48.174;9.782;2024-02-26T07:31:33;16.77;;;9.57;;
21657;SDS011;10990;48.174;9.782;2024-02-26T07:33:59;19.03;;;10.43;;
21657;SDS011;10990;48.174;9.782;2024-02-26T07:36:25;17.10;;;9.60;;
21657;SDS011;10990;48.174;9.782;2024-02-26T07:38:50;18.03;;;9.67;;
21657;SDS011;10990;48.174;9.782;2024-02-26T07:41:16;19.83;;;9.93;;
21657;SDS011;10990;48.174;9.782;2024-02-26T07:43:42;17.03;;;9.63;;
21657;SDS011;10990;48.174;9.782;2024-02-26T07:46:10;16.83;;;9.20;;
21657;SDS011;10990;48.174;9.782;2024-02-26T07:48:37;19.10;;;9.67;;
21657;SDS011;10990;48.174;9.782;2024-02-26T07:51:03;16.97;;;9.90;;
21657;SDS011;10990;48.174;9.782;2024-02-26T07:53:29;15.80;;;9.23;;
21657;SDS011;10990;48.174;9.782;2024-02-26T07:55:55;17.80;;;9.20;;
21657;SDS011;10990;48.174;9.782;2024-02-26T07:58:21;16.63;;;9.27;;
21657;SDS011;10990;48.174;9.782;2024-02-26T08:00:47;13.13;;;8.50;;
21657;SDS011;10990;48.174;9.782;2024-02-26T08:03:16;15.30;;;8.97;;
21657;SDS011;10990;48.174;9.782;2024-02-26T08:05:41;15.23;;;8.93;;
21657;SDS011;10990;48.174;9.782;2024-02-26T08:08:07;15.63;;;9.53;;
21657;SDS011;10990;48.174;9.782;2024-02-26T08:10:33;16.83;;;9.20;;
21657;SDS011;10990;48.174;9.782;2024-02-26T08:12:59;15.23;;;8.63;;
21657;SDS011;10990;48.174;9.782;2024-02-26T08:15:25;16.07;;;9.03;;
21657;SDS011;10990;48.174;9.782;2024-02-26T08:17:51;16.83;;;9.40;;
21657;SDS011;10990;48.174;9.782;2024-02-26T08:20:20;17.27;;;10.17;;
21657;SDS011;10990;48.174;9.782;2024-02-26T08:22:45;17.73;;;10.00;;
21657;SDS011;10990;48.174;9.782;2024-02-26T08:25:11;18.67;;;10.47;;
21657;SDS011;10990;48.174;9.782;2024-02-26T08:27:37;19.63;;;10.37;;
21657;SDS011;10990;48.174;9.782;2024-02-26T08:30:03;21.27;;;10.63;;
21657;SDS011;10990;48.174;9.782;2024-02-26T08:32:30;20.47;;;11.17;;
21657;SDS011;10990;48.174;9.782;2024-02-26T08:34:56;23.30;;;11.60;;
21657;SDS011;10990;48.174;9.782;2024-02-26T08:37:24;18.83;;;10.40;;
21657;SDS011;10990;48.174;9.782;2024-02-26T08:39:50;18.27;;;10.90;;
21657;SDS011;10990;48.174;9.782;2024-02-26T08:42:16;22.17;;;11.03;;
21657;SDS011;10990;48.174;9.782;2024-02-26T08:44:42;21.17;;;11.07;;
21657;SDS011;10990;48.174;9.782;2024-02-26T08:47:08;21.43;;;11.43;;
21657;SDS011;10990;48.174;9.782;2024-02-26T08:49:33;22.33;;;11.83;;
21657;SDS011;10990;48.174;9.782;2024-02-26T08:51:59;20.57;;;10.53;;
21657;SDS011;10990;48.174;9.782;2024-02-26T08:54:28;18.27;;;10.30;;
21657;SDS011;10990;48.174;9.782;2024-02-26T08:56:53;19.60;;;10.70;;
21657;SDS011;10990;48.174;9.782;2024-02-26T08:59:19;19.00;;;10.43;;
21657;SDS011;10990;48.174;9.782;2024-02-26T09:01:45;19.43;;;10.50;;
21657;SDS011;10990;48.174;9.782;2024-02-26T09:04:11;17.60;;;9.67;;
21657;SDS011;10990;48.174;9.782;2024-02-26T09:06:40;20.37;;;10.60;;
21657;SDS011;10990;48.174;9.782;2024-02-26T09:09:06;18.37;;;9.97;;
21657;SDS011;10990;48.174;9.782;2024-02-26T09:11:34;20.30;;;10.40;;
21657;SDS011;10990;48.174;9.782;2024-02-26T09:14:00;17.00;;;9.73;;
21657;SDS011;10990;48.174;9.782;2024-02-26T09:16:26;18.07;;;10.07;;
21657;SDS011;10990;48.174;9.782;2024-02-26T09:18:52;16.20;;;9.90;;
21657;SDS011;10990;48.174;9.782;2024-02-26T09:21:17;17.47;;;9.90;;
21657;SDS011;10990;48.174;9.782;2024-02-26T09:23:43;19.17;;;9.90;;
21657;SDS011;10990;48.174;9.782;2024-02-26T09:26:09;15.90;;;8.80;;
21657;SDS011;10990;48.174;9.782;2024-02-26T09:28:37;15.30;;;9.23;;
21657;SDS011;10990;48.174;9.782;2024-02-26T09:31:03;15.20;;;8.77;;
21657;SDS011;10990;48.174;9.782;2024-02-26T09:33:29;14.03;;;8.83;;
21657;SDS011;10990;48.174;9.782;2024-02-26T09:35:55;16.70;;;9.40;;
21657;SDS011;10990;48.174;9.782;2024-02-26T09:38:21;12.73;;;8.07;;
21657;SDS011;10990;48.174;9.782;2024-02-26T09:40:47;15.07;;;8.48;;
21657;SDS011;10990;48.174;9.782;2024-02-26T09:43:14;14.68;;;8.52;;
21657;SDS011;10990;48.174;9.782;2024-02-26T09:45:42;14.68;;;9.00;;
21657;SDS011;10990;48.174;9.782;2024-02-26T09:48:08;13.93;;;9.13;;
21657;SDS011;10990;48.174;9.782;2024-02-26T09:50:36;13.57;;;8.05;;
21657;SDS011;10990;48.174;9.782;2024-02-26T09:53:02;15.50;;;8.80;;
21657;SDS011;10990;48.174;9.782;2024-02-26T09:55:30;16.67;;;9.07;;
21657;SDS011;10990;48.174;9.782;2024-02-26T09:57:56;14.07;;;8.82;;
21657;SDS011;10990;48.174;9.782;2024-02-26T10:00:23;15.45;;;9.57;;
21657;SDS011;10990;48.174;9.782;2024-02-26T10:02:54;16.00;;;9.10;;
21657;SDS011;10990;48.174;9.782;2024-02-26T10:05:22;15.05;;;9.38;;
21657;SDS011;10990;48.174;9.782;2024-02-26T10:07:49;14.98;;;9.50;;
21657;SDS011;10990;48.174;9.782;2024-02-26T10:10:17;16.02;;;9.52;;
21657;SDS011;10990;48.174;9.782;2024-02-26T10:12:43;18.08;;;9.98;;
21657;SDS011;10990;48.174;9.782;2024-02-26T10:15:09;16.42;;;9.27;;
21657;SDS011;10990;48.174;9.782;2024-02-26T10:17:35;13.02;;;8.95;;
21657;SDS011;10990;48.174;9.782;2024-02-26T10:20:14;14.77;;;9.30;;
21657;SDS011;10990;48.174;9.782;2024-02-26T10:22:41;15.40;;;9.18;;
21657;SDS011;10990;48.174;9.782;2024-02-26T10:25:07;14.23;;;8.65;;
21657;SDS011;10990;48.174;9.782;2024-02-26T10:27:34;13.98;;;8.25;;
21657;SDS011;10990;48.174;9.782;2024-02-26T10:30:01;14.48;;;8.73;;
21657;SDS011;10990;48.174;9.782;2024-02-26T10:32:28;13.55;;;8.52;;
21657;SDS011;10990;48.174;9.782;2024-02-26T10:34:55;15.00;;;8.38;;
21657;SDS011;10990;48.174;9.782;2024-02-26T10:37:24;14.77;;;8.90;;
21657;SDS011;10990;48.174;9.782;2024-02-26T10:39:50;15.13;;;8.40;;
21657;SDS011;10990;48.174;9.782;2024-02-26T10:42:16;16.50;;;8.73;;
21657;SDS011;10990;48.174;9.782;2024-02-26T10:44:42;15.60;;;9.23;;
21657;SDS011;10990;48.174;9.782;2024-02-26T10:47:08;15.18;;;8.98;;
21657;SDS011;10990;48.174;9.782;2024-02-26T10:49:35;18.08;;;9.27;;
21657;SDS011;10990;48.174;9.782;2024-02-26T10:52:01;18.13;;;8.87;;
21657;SDS011;10990;48.174;9.782;2024-02-26T10:54:31;16.58;;;8.90;;
21657;SDS011;10990;48.174;9.782;2024-02-26T10:56:58;18.13;;;9.13;;
21657;SDS011;10990;48.174;9.782;2024-02-26T10:59:25;16.80;;;9.20;;
21657;SDS011;10990;48.174;9.782;2024-02-26T11:01:51;16.73;;;9.40;;
21657;SDS011;10990;48.174;9.782;2024-02-26T11:04:19;15.60;;;8.33;;
21657;SDS011;10990;48.174;9.782;2024-02-26T11:06:46;15.67;;;8.73;;
21657;SDS011;10990;48.174;9.782;2024-02-26T11:09:14;15.93;;;9.00;;
21657;SDS011;10990;48.174;9.782;2024-02-26T11:11:44;15.47;;;9.03;;
21657;SDS011;10990;48.174;9.782;2024-02-26T11:14:10;17.23;;;9.83;;
21657;SDS011;10990;48.174;9.782;2024-02-26T11:16:37;15.83;;;10.00;;
21657;SDS011;10990;48.174;9.782;2024-02-26T11:19:04;16.33;;;10.18;;
21657;SDS011;10990;48.174;9.782;2024-02-26T11:21:33;17.98;;;9.68;;
21657;SDS011;10990;48.174;9.782;2024-02-26T11:23:59;17.52;;;9.70;;
21657;SDS011;10990;48.174;9.782;2024-02-26T11:26:28;16.97;;;9.97;;
21657;SDS011;10990;48.174;9.782;2024-02-26T11:28:56;20.00;;;9.95;;
21657;SDS011;10990;48.174;9.782;2024-02-26T11:31:24;18.73;;;10.27;;
21657;SDS011;10990;48.174;9.782;2024-02-26T11:33:50;19.17;;;10.60;;
21657;SDS011;10990;48.174;9.782;2024-02-26T11:36:16;16.27;;;9.43;;
21657;SDS011;10990;48.174;9.782;2024-02-26T11:38:43;16.37;;;9.30;;
21657;SDS011;10990;48.174;9.782;2024-02-26T11:41:09;17.35;;;9.05;;
21657;SDS011;10990;48.174;9.782;2024-02-26T11:43:51;14.93;;;8.73;;
21657;SDS011;10990;48.174;9.782;2024-02-26T11:46:29;14.95;;;8.95;;
21657;SDS011;10990;48.174;9.782;2024-02-26T11:48:56;20.10;;;10.50;;
21657;SDS011;10990;48.174;9.782;2024-02-26T11:51:25;16.53;;;9.90;;
21657;SDS011;10990;48.174;9.782;2024-02-26T11:53:51;19.57;;;10.93;;
21657;SDS011;10990;48.174;9.782;2024-02-26T11:56:23;20.83;;;11.80;;
21657;SDS011;10990;48.174;9.782;2024-02-26T11:58:59;16.23;;;10.13;;
21657;SDS011;10990;48.174;9.782;2024-02-26T12:01:38;18.23;;;10.40;;
21657;SDS011;10990;48.174;9.782;2024-02-26T12:04:05;18.97;;;10.40;;
21657;SDS011;10990;48.174;9.782;2024-02-26T12:06:35;15.10;;;9.47;;
21657;SDS011;10990;48.174;9.782;2024-02-26T12:09:06;13.53;;;8.53;;
21657;SDS011;10990;48.174;9.782;2024-02-26T12:11:32;14.27;;;8.80;;
21657;SDS011;10990;48.174;9.782;2024-02-26T12:13:59;14.05;;;8.73;;
21657;SDS011;10990;48.174;9.782;2024-02-26T12:16:34;14.27;;;8.23;;
21657;SDS011;10990;48.174;9.782;2024-02-26T12:19:03;17.00;;;7.78;;
21657;SDS011;10990;48.174;9.782;2024-02-26T12:21:30;14.07;;;8.60;;
21657;SDS011;10990;48.174;9.782;2024-02-26T12:23:55;15.45;;;7.88;;
21657;SDS011;10990;48.174;9.782;2024-02-26T12:26:31;12.60;;;7.90;;
21657;SDS011;10990;48.174;9.782;2024-02-26T12:28:57;17.40;;;8.73;;
21657;SDS011;10990;48.174;9.782;2024-02-26T12:31:23;13.87;;;7.97;;
21657;SDS011;10990;48.174;9.782;2024-02-26T12:33:49;11.83;;;7.47;;
21657;SDS011;10990;48.174;9.782;2024-02-26T12:36:18;14.60;;;8.33;;
21657;SDS011;10990;48.174;9.782;2024-02-26T12:38:44;15.93;;;8.00;;
21657;SDS011;10990;48.174;9.782;2024-02-26T12:41:10;13.53;;;8.13;;
21657;SDS011;10990;48.174;9.782;2024-02-26T12:43:36;17.63;;;8.83;;
21657;SDS011;10990;48.174;9.782;2024-02-26T12:46:02;17.40;;;8.67;;
21657;SDS011;10990;48.174;9.782;2024-02-26T12:48:29;14.37;;;8.07;;
21657;SDS011;10990;48.174;9.782;2024-02-26T12:50:54;14.50;;;7.97;;
21657;SDS011;10990;48.174;9.782;2024-02-26T12:53:23;15.40;;;9.07;;
21657;SDS011;10990;48.174;9.782;2024-02-26T12:55:50;14.57;;;8.30;;
21657;SDS011;10990;48.174;9.782;2024-02-26T12:58:16;14.30;;;8.20;;
21657;SDS011;10990;48.174;9.782;2024-02-26T13:00:42;14.27;;;8.63;;
21657;SDS011;10990;48.174;9.782;2024-02-26T13:03:08;15.67;;;8.43;;
21657;SDS011;10990;48.174;9.782;2024-02-26T13:05:35;16.73;;;8.97;;
21657;SDS011;10990;48.174;9.782;2024-02-26T13:08:01;13.33;;;8.00;;
21657;SDS011;10990;48.174;9.782;2024-02-26T13:10:29;12.50;;;8.03;;
21657;SDS011;10990;48.174;9.782;2024-02-26T13:12:56;13.53;;;7.97;;
21657;SDS011;10990;48.174;9.782;2024-02-26T13:15:23;14.23;;;7.80;;
21657;SDS011;10990;48.174;9.782;2024-02-26T13:17:49;10.97;;;7.33;;
21657;SDS011;10990;48.174;9.782;2024-02-26T13:20:24;14.63;;;7.60;;
21657;SDS011;10990;48.174;9.782;2024-02-26T13:22:51;14.60;;;7.93;;
21657;SDS011;10990;48.174;9.782;2024-02-26T13:25:25;12.50;;;7.43;;
21657;SDS011;10990;48.174;9.782;2024-02-26T13:27:53;14.80;;;8.37;;
21657;SDS011;10990;48.174;9.782;2024-02-26T13:30:31;12.37;;;7.57;;
21657;SDS011;10990;48.174;9.782;2024-02-26T13:32:57;13.70;;;7.73;;
21657;SDS011;10990;48.174;9.782;2024-02-26T13:35:32;13.33;;;7.93;;
21657;SDS011;10990;48.174;9.782;2024-02-26T13:37:58;12.57;;;7.88;;
21657;SDS011;10990;48.174;9.782;2024-02-26T13:40:24;13.20;;;7.93;;
21657;SDS011;10990;48.174;9.782;2024-02-26T13:42:50;14.10;;;7.50;;
21657;SDS011;10990;48.174;9.782;2024-02-26T13:45:18;12.40;;;7.07;;
21657;SDS011;10990;48.174;9.782;2024-02-26T13:47:45;11.23;;;6.90;;
21657;SDS011;10990;48.174;9.782;2024-02-26T13:50:10;12.43;;;7.32;;
21657;SDS011;10990;48.174;9.782;2024-02-26T13:52:36;14.60;;;7.37;;
21657;SDS011;10990;48.174;9.782;2024-02-26T13:55:02;13.13;;;7.80;;
21657;SDS011;10990;48.174;9.782;2024-02-26T13:57:29;14.13;;;7.00;;
21657;SDS011;10990;48.174;9.782;2024-02-26T13:59:55;13.40;;;7.65;;
21657;SDS011;10990;48.174;9.782;2024-02-26T14:02:23;15.37;;;7.93;;
21657;SDS011;10990;48.174;9.782;2024-02-26T14:04:50;15.23;;;9.70;;
21657;SDS011;10990;48.174;9.782;2024-02-26T14:07:15;16.27;;;9.38;;
21657;SDS011;10990;48.174;9.782;2024-02-26T14:09:41;15.75;;;8.75;;
21657;SDS011;10990;48.174;9.782;2024-02-26T14:12:07;11.13;;;7.27;;
21657;SDS011;10990;48.174;9.782;2024-02-26T14:14:33;17.23;;;8.60;;
21657;SDS011;10990;48.174;9.782;2024-02-26T14:16:59;15.70;;;8.70;;
21657;SDS011;10990;48.174;9.782;2024-02-26T14:19:28;15.13;;;9.10;;
21657;SDS011;10990;48.174;9.782;2024-02-26T14:21:53;16.03;;;8.73;;
21657;SDS011;10990;48.174;9.782;2024-02-26T14:24:19;17.97;;;8.40;;
21657;SDS011;10990;48.174;9.782;2024-02-26T14:26:45;17.90;;;10.30;;
21657;SDS011;10990;48.174;9.782;2024-02-26T14:29:11;21.80;;;11.60;;
21657;SDS011;10990;48.174;9.782;2024-02-26T14:31:37;20.00;;;11.00;;
21657;SDS011;10990;48.174;9.782;2024-02-26T14:34:03;21.27;;;9.20;;